Time,TemperatureF,DewpointF,PressureIn,WindDirection,WindDirectionDegrees,WindSpeedMPH,WindSpeedGustMPH,Humidity,HourlyPrecipIn,Conditions,Clouds,dailyrainin,SoftwareType,DateUTC
2013-03-14 00:01:00,33.3,17.0,21.74,West,270,4.3,7.4,51,0.00,,,0.00,WUHU216HW,2013-03-14 06:01:00,
2013-03-14 00:06:00,33.5,17.2,21.74,WSW,248,1.8,7.4,51,0.00,,,0.00,WUHU216HW,2013-03-14 06:06:00,
2013-03-14 00:11:00,33.3,17.0,21.74,WNW,293,5.4,9.8,51,0.00,,,0.00,WUHU216HW,2013-03-14 06:11:00,
2013-03-14 00:16:00,32.9,17.2,21.74,WSW,248,4.7,9.8,52,0.00,,,0.00,WUHU216HW,2013-03-14 06:16:00,
2013-03-14 00:21:00,32.9,16.8,21.74,West,270,4.7,8.7,51,0.00,,,0.00,WUHU216HW,2013-03-14 06:21:00,
2013-03-14 00:26:00,32.8,17.0,21.74,West,270,5.4,9.8,52,0.00,,,0.00,WUHU216HW,2013-03-14 06:26:00,
2013-03-14 00:31:00,32.6,16.8,21.74,WNW,293,4.3,10.5,52,0.00,,,0.00,WUHU216HW,2013-03-14 06:31:00,
2013-03-14 00:36:00,32.2,16.5,21.74,NW,315,3.6,10.5,52,0.00,,,0.00,WUHU216HW,2013-03-14 06:36:00,
2013-03-14 00:41:00,32.2,16.9,21.74,WNW,293,8.9,9.4,53,0.00,,,0.00,WUHU216HW,2013-03-14 06:41:00,
2013-03-14 00:46:00,32.0,16.4,21.74,WNW,293,0.4,9.4,52,0.00,,,0.00,WUHU216HW,2013-03-14 06:46:00,
2013-03-14 00:51:00,31.9,16.2,21.74,West,270,6.5,8.9,52,0.00,,,0.00,WUHU216HW,2013-03-14 06:51:00,
2013-03-14 00:56:00,32.0,16.7,21.74,WSW,248,1.8,9.2,53,0.00,,,0.00,WUHU216HW,2013-03-14 06:56:00,
2013-03-14 01:01:00,32.6,16.8,21.74,West,270,3.4,9.2,52,0.00,,,0.00,WUHU216HW,2013-03-14 07:01:00,
2013-03-14 01:06:00,32.2,16.5,21.74,SW,225,4.7,10.5,52,0.00,,,0.00,WUHU216HW,2013-03-14 07:06:00,
2013-03-14 01:11:00,32.0,16.7,21.74,WNW,293,4.0,10.5,53,0.00,,,0.00,WUHU216HW,2013-03-14 07:11:00,
2013-03-14 01:16:00,32.0,16.4,21.74,WNW,293,13.9,13.9,52,0.00,,,0.00,WUHU216HW,2013-03-14 07:16:00,
2013-03-14 01:21:00,32.0,16.4,21.73,West,270,6.5,13.9,52,0.00,,,0.00,WUHU216HW,2013-03-14 07:21:00,
2013-03-14 01:26:00,32.0,16.7,21.74,West,270,1.8,13.9,53,0.00,,,0.00,WUHU216HW,2013-03-14 07:26:00,
2013-03-14 01:31:00,32.2,16.9,21.73,East,90,0.0,8.9,53,0.00,,,0.00,WUHU216HW,2013-03-14 07:31:00,
2013-03-14 01:36:00,32.0,16.7,21.74,South,180,0.0,2.0,53,0.00,,,0.00,WUHU216HW,2013-03-14 07:36:00,
2013-03-14 01:41:00,31.9,16.2,21.73,West,270,4.3,4.5,52,0.00,,,0.00,WUHU216HW,2013-03-14 07:41:00,
2013-03-14 01:46:00,31.5,16.3,21.73,WNW,293,2.5,8.7,53,0.00,,,0.00,WUHU216HW,2013-03-14 07:46:00,
2013-03-14 01:51:00,31.1,16.4,21.74,WNW,293,3.6,8.7,54,0.00,,,0.00,WUHU216HW,2013-03-14 07:51:00,
2013-03-14 01:56:00,31.1,16.4,21.74,West,270,3.4,10.5,54,0.00,,,0.00,WUHU216HW,2013-03-14 07:56:00,
2013-03-14 02:01:00,31.5,16.3,21.74,West,270,4.7,10.5,53,0.00,,,0.00,WUHU216HW,2013-03-14 08:01:00,
2013-03-14 02:06:00,31.5,16.3,21.74,WSW,248,2.0,9.2,53,0.00,,,0.00,WUHU216HW,2013-03-14 08:06:00,
2013-03-14 02:11:00,31.7,16.0,21.74,NW,315,1.3,9.2,52,0.00,,,0.00,WUHU216HW,2013-03-14 08:11:00,
2013-03-14 02:16:00,31.3,16.1,21.74,WSW,248,4.0,5.6,53,0.00,,,0.00,WUHU216HW,2013-03-14 08:16:00,
2013-03-14 02:21:00,31.1,15.9,21.74,West,270,2.5,9.4,53,0.00,,,0.00,WUHU216HW,2013-03-14 08:21:00,
2013-03-14 02:26:00,31.0,15.8,21.73,West,270,3.1,9.4,53,0.00,,,0.00,WUHU216HW,2013-03-14 08:26:00,
2013-03-14 02:31:00,31.0,16.2,21.74,WSW,248,5.8,9.2,54,0.00,,,0.00,WUHU216HW,2013-03-14 08:31:00,
2013-03-14 02:36:00,31.1,16.4,21.73,West,270,6.9,9.2,54,0.00,,,0.00,WUHU216HW,2013-03-14 08:36:00,
2013-03-14 02:41:00,31.1,15.9,21.73,SW,225,4.3,8.5,53,0.00,,,0.00,WUHU216HW,2013-03-14 08:41:00,
2013-03-14 02:47:00,31.1,16.4,21.73,WNW,293,3.1,5.6,54,0.00,,,0.00,WUHU216HW,2013-03-14 08:47:00,
2013-03-14 02:52:00,31.3,16.6,21.73,WSW,248,2.7,4.7,54,0.00,,,0.00,WUHU216HW,2013-03-14 08:52:00,
2013-03-14 02:57:00,31.3,16.1,21.73,West,270,5.4,6.9,53,0.00,,,0.00,WUHU216HW,2013-03-14 08:57:00,
2013-03-14 03:02:00,31.1,16.4,21.73,SW,225,6.5,8.1,54,0.00,,,0.00,WUHU216HW,2013-03-14 09:02:00,
2013-03-14 03:07:00,31.1,16.4,21.73,ENE,68,6.5,8.3,54,0.00,,,0.00,WUHU216HW,2013-03-14 09:07:00,
2013-03-14 03:12:00,31.0,16.2,21.73,West,270,3.1,8.9,54,0.00,,,0.00,WUHU216HW,2013-03-14 09:12:00,
2013-03-14 03:17:00,30.6,16.3,21.73,WNW,293,6.9,11.6,55,0.00,,,0.00,WUHU216HW,2013-03-14 09:17:00,
2013-03-14 03:22:00,30.8,16.5,21.72,West,270,3.1,11.6,55,0.00,,,0.00,WUHU216HW,2013-03-14 09:22:00,
2013-03-14 03:27:00,30.8,16.0,21.72,WSW,248,2.5,6.9,54,0.00,,,0.00,WUHU216HW,2013-03-14 09:27:00,
2013-03-14 03:32:00,31.1,16.4,21.72,West,270,2.9,8.3,54,0.00,,,0.00,WUHU216HW,2013-03-14 09:32:00,
2013-03-14 04:00:00,30.6,16.3,21.72,West,270,2.5,2.5,55,0.00,,,0.00,WUHU216HW,2013-03-14 10:00:00,
2013-03-14 04:05:00,30.6,16.3,21.72,WSW,248,5.4,5.4,55,0.00,,,0.00,WUHU216HW,2013-03-14 10:05:00,
2013-03-14 04:10:00,30.6,16.3,21.72,WSW,248,5.4,5.4,55,0.00,,,0.00,WUHU216HW,2013-03-14 10:10:00,
2013-03-14 04:30:00,31.7,16.5,21.72,WNW,293,6.0,6.0,53,0.00,,,0.00,WUHU216HW,2013-03-14 10:30:00,
2013-03-14 04:35:00,31.7,16.5,21.72,WSW,248,5.8,6.0,53,0.00,,,0.00,WUHU216HW,2013-03-14 10:35:00,
2013-03-14 04:40:00,31.7,16.5,21.72,WSW,248,5.8,6.0,53,0.00,,,0.00,WUHU216HW,2013-03-14 10:40:00,
2013-03-14 05:00:00,31.7,16.8,21.72,ENE,68,0.2,0.2,54,0.00,,,0.00,WUHU216HW,2013-03-14 11:00:00,
2013-03-14 05:05:00,31.7,16.8,21.72,ENE,68,0.0,0.2,54,0.00,,,0.00,WUHU216HW,2013-03-14 11:05:00,
2013-03-14 05:10:00,31.7,16.8,21.72,ENE,68,0.0,0.2,54,0.00,,,0.00,WUHU216HW,2013-03-14 11:10:00,
2013-03-14 05:30:00,31.5,16.8,21.73,WSW,248,3.4,3.4,54,0.00,,,0.00,WUHU216HW,2013-03-14 11:30:00,
2013-03-14 05:35:00,31.5,16.8,21.73,WSW,248,3.4,3.4,54,0.00,,,0.00,WUHU216HW,2013-03-14 11:35:00,
2013-03-14 05:40:00,31.5,16.8,21.73,WSW,248,3.4,3.4,54,0.00,,,0.00,WUHU216HW,2013-03-14 11:40:00,
2013-03-14 06:00:00,30.6,16.3,21.74,West,270,2.7,2.7,55,0.00,,,0.00,WUHU216HW,2013-03-14 12:00:00,
2013-03-14 06:05:00,30.6,16.3,21.74,WSW,248,1.8,2.7,55,0.00,,,0.00,WUHU216HW,2013-03-14 12:05:00,
2013-03-14 06:10:00,30.6,16.3,21.74,WSW,248,1.8,1.8,55,0.00,,,0.00,WUHU216HW,2013-03-14 12:10:00,
2013-03-14 06:30:00,29.5,14.9,21.74,East,90,0.0,0.0,54,0.00,,,0.00,WUHU216HW,2013-03-14 12:30:00,
2013-03-14 06:35:00,29.5,14.9,21.74,East,90,0.0,0.0,54,0.00,,,0.00,WUHU216HW,2013-03-14 12:35:00,
2013-03-14 06:40:00,29.5,14.9,21.74,East,90,0.0,0.0,54,0.00,,,0.00,WUHU216HW,2013-03-14 12:40:00,
2013-03-14 07:00:00,28.4,15.9,21.74,West,270,1.1,1.1,59,0.00,,,0.00,WUHU216HW,2013-03-14 13:00:00,
2013-03-14 07:05:00,28.4,15.9,21.74,West,270,1.1,1.1,59,0.00,,,0.00,WUHU216HW,2013-03-14 13:05:00,
2013-03-14 07:10:00,28.4,15.9,21.74,West,270,1.1,1.1,59,0.00,,,0.00,WUHU216HW,2013-03-14 13:10:00,
2013-03-14 07:30:00,29.3,15.9,21.75,NW,315,0.0,0.0,57,0.00,,,0.00,WUHU216HW,2013-03-14 13:30:00,
2013-03-14 07:35:00,29.3,15.9,21.75,NW,315,0.0,0.0,57,0.00,,,0.00,WUHU216HW,2013-03-14 13:35:00,
2013-03-14 07:40:00,29.3,15.9,21.75,NW,315,0.0,0.0,57,0.00,,,0.00,WUHU216HW,2013-03-14 13:40:00,
2013-03-14 08:00:00,27.4,15.3,21.75,ENE,68,0.4,0.4,60,0.00,,,0.00,WUHU216HW,2013-03-14 14:00:00,
2013-03-14 08:05:00,27.4,15.3,21.75,East,90,0.7,0.7,60,0.00,,,0.00,WUHU216HW,2013-03-14 14:05:00,
2013-03-14 08:10:00,27.4,15.3,21.75,East,90,0.7,0.7,60,0.00,,,0.00,WUHU216HW,2013-03-14 14:10:00,
2013-03-14 08:30:00,28.8,16.8,21.76,ENE,68,0.2,0.2,60,0.00,,,0.00,WUHU216HW,2013-03-14 14:30:00,
2013-03-14 08:35:00,28.8,16.8,21.76,ENE,68,0.2,0.2,60,0.00,,,0.00,WUHU216HW,2013-03-14 14:35:00,
2013-03-14 08:40:00,28.8,16.8,21.76,ENE,68,0.2,0.2,60,0.00,,,0.00,WUHU216HW,2013-03-14 14:40:00,
2013-03-14 09:00:00,31.5,18.8,21.76,ENE,68,0.0,0.0,59,0.00,,,0.00,WUHU216HW,2013-03-14 15:00:00,
2013-03-14 09:05:00,31.5,18.8,21.76,ENE,68,0.0,0.0,59,0.00,,,0.00,WUHU216HW,2013-03-14 15:05:00,
2013-03-14 09:10:00,31.5,18.8,21.76,ENE,68,0.0,0.0,59,0.00,,,0.00,WUHU216HW,2013-03-14 15:10:00,
2013-03-14 09:30:00,34.7,20.2,21.76,ENE,68,0.7,0.7,55,0.00,,,0.00,WUHU216HW,2013-03-14 15:30:00,
2013-03-14 09:35:00,34.7,20.2,21.76,ENE,68,0.4,0.7,55,0.00,,,0.00,WUHU216HW,2013-03-14 15:35:00,
2013-03-14 09:40:00,34.7,20.2,21.76,ENE,68,0.4,0.7,55,0.00,,,0.00,WUHU216HW,2013-03-14 15:40:00,
2013-03-14 10:00:00,37.1,20.6,21.76,ENE,68,0.4,0.4,51,0.00,,,0.00,WUHU216HW,2013-03-14 16:00:00,
2013-03-14 10:05:00,37.3,20.8,21.76,ENE,68,0.2,0.4,51,0.00,,,0.00,WUHU216HW,2013-03-14 16:05:00,
2013-03-14 10:10:00,37.3,20.8,21.76,ENE,68,0.2,0.2,51,0.00,,,0.00,WUHU216HW,2013-03-14 16:10:00,
2013-03-14 10:30:00,40.5,22.8,21.75,ENE,68,0.2,0.2,49,0.00,,,0.00,WUHU216HW,2013-03-14 16:30:00,
2013-03-14 10:35:00,40.5,22.8,21.75,ENE,68,0.0,0.2,49,0.00,,,0.00,WUHU216HW,2013-03-14 16:35:00,
2013-03-14 10:40:00,40.5,22.8,21.75,ENE,68,0.0,0.2,49,0.00,,,0.00,WUHU216HW,2013-03-14 16:40:00,
2013-03-14 11:00:00,44.1,24.0,21.75,ENE,68,0.0,0.0,45,0.00,,,0.00,WUHU216HW,2013-03-14 17:00:00,
2013-03-14 11:05:00,44.1,24.0,21.75,ENE,68,0.0,0.0,45,0.00,,,0.00,WUHU216HW,2013-03-14 17:05:00,
2013-03-14 11:10:00,44.1,24.0,21.75,ENE,68,0.0,0.0,45,0.00,,,0.00,WUHU216HW,2013-03-14 17:10:00,
2013-03-14 11:30:00,46.4,23.9,21.74,East,90,0.2,0.2,41,0.00,,,0.00,WUHU216HW,2013-03-14 17:30:00,
2013-03-14 11:35:00,46.4,23.9,21.74,East,90,0.0,0.2,41,0.00,,,0.00,WUHU216HW,2013-03-14 17:35:00,
2013-03-14 11:40:00,46.4,23.9,21.74,East,90,0.0,0.0,41,0.00,,,0.00,WUHU216HW,2013-03-14 17:40:00,
2013-03-14 12:00:00,48.6,24.0,21.74,ENE,68,0.0,0.0,38,0.00,,,0.00,WUHU216HW,2013-03-14 18:00:00,
2013-03-14 12:05:00,48.4,23.9,21.74,ENE,68,0.2,0.2,38,0.00,,,0.00,WUHU216HW,2013-03-14 18:05:00,
2013-03-14 12:10:00,48.4,23.9,21.74,ENE,68,0.2,0.2,38,0.00,,,0.00,WUHU216HW,2013-03-14 18:10:00,
2013-03-14 12:30:00,49.0,21.0,21.74,ENE,68,2.5,2.5,33,0.00,,,0.00,WUHU216HW,2013-03-14 18:30:00,
2013-03-14 12:35:00,49.0,21.0,21.74,ENE,68,1.3,2.5,33,0.00,,,0.00,WUHU216HW,2013-03-14 18:35:00,
2013-03-14 13:00:00,48.6,19.4,21.73,West,270,0.4,0.4,31,0.00,,,0.00,WUHU216HW,2013-03-14 19:00:00,
2013-03-14 13:05:00,48.6,19.4,21.73,West,270,2.2,2.2,31,0.00,,,0.00,WUHU216HW,2013-03-14 19:05:00,
2013-03-14 13:10:00,48.6,19.4,21.73,West,270,2.2,2.2,31,0.00,,,0.00,WUHU216HW,2013-03-14 19:10:00,
2013-03-14 13:30:00,49.9,16.9,21.72,ENE,68,1.8,1.8,27,0.01,,,0.00,WUHU216HW,2013-03-14 19:30:00,
2013-03-14 13:35:00,50.0,17.0,21.72,ENE,68,1.8,1.8,27,0.01,,,0.01,WUHU216HW,2013-03-14 19:35:00,
2013-03-14 13:40:00,50.0,17.0,21.72,ENE,68,1.8,1.8,27,0.01,,,0.01,WUHU216HW,2013-03-14 19:40:00,
2013-03-14 14:00:00,50.4,15.5,21.71,West,270,2.2,2.2,25,0.01,,,0.01,WUHU216HW,2013-03-14 20:00:00,
2013-03-14 14:05:00,50.4,15.5,21.71,NNW,338,1.6,2.2,25,0.01,,,0.01,WUHU216HW,2013-03-14 20:05:00,
2013-03-14 14:10:00,50.4,15.5,21.71,NNW,338,1.6,2.2,25,0.01,,,0.01,WUHU216HW,2013-03-14 20:10:00,
2013-03-14 14:30:00,50.8,14.0,21.70,West,270,6.9,6.9,23,0.00,,,0.01,WUHU216HW,2013-03-14 20:30:00,
2013-03-14 14:35:00,50.8,14.0,21.70,West,270,6.9,6.9,23,0.00,,,0.01,WUHU216HW,2013-03-14 20:35:00,
2013-03-14 14:40:00,50.8,14.0,21.70,West,270,6.9,6.9,23,0.00,,,0.01,WUHU216HW,2013-03-14 20:40:00,
2013-03-14 15:00:00,50.4,12.8,21.71,West,270,2.9,2.9,22,0.00,,,0.01,WUHU216HW,2013-03-14 21:00:00,
2013-03-14 15:05:00,50.2,13.5,21.70,WSW,248,2.2,2.9,23,0.00,,,0.01,WUHU216HW,2013-03-14 21:05:00,
2013-03-14 15:10:00,50.2,13.5,21.70,WSW,248,2.2,2.5,23,0.00,,,0.01,WUHU216HW,2013-03-14 21:10:00,
2013-03-14 15:30:00,50.0,14.3,21.70,WSW,248,5.6,5.6,24,0.00,,,0.01,WUHU216HW,2013-03-14 21:30:00,
2013-03-14 15:35:00,50.0,14.3,21.70,WNW,293,5.4,5.6,24,0.00,,,0.01,WUHU216HW,2013-03-14 21:35:00,
2013-03-14 15:40:00,50.0,14.3,21.70,WNW,293,5.4,5.4,24,0.00,,,0.01,WUHU216HW,2013-03-14 21:40:00,
2013-03-14 16:00:00,50.6,17.6,21.69,West,270,2.5,2.5,27,0.00,,,0.01,WUHU216HW,2013-03-14 22:00:00,
2013-03-14 16:05:00,50.6,17.6,21.69,East,90,1.8,2.5,27,0.00,,,0.01,WUHU216HW,2013-03-14 22:05:00,
2013-03-14 16:10:00,50.6,17.6,21.69,East,90,1.8,2.5,27,0.00,,,0.01,WUHU216HW,2013-03-14 22:10:00,
2013-03-14 16:30:00,52.2,18.9,21.69,East,90,0.4,0.4,27,0.00,,,0.01,WUHU216HW,2013-03-14 22:30:00,
2013-03-14 16:35:00,52.2,18.9,21.69,East,90,0.4,0.4,27,0.00,,,0.01,WUHU216HW,2013-03-14 22:35:00,
2013-03-14 16:40:00,52.2,18.9,21.69,East,90,0.4,0.4,27,0.00,,,0.01,WUHU216HW,2013-03-14 22:40:00,
2013-03-14 17:00:00,50.8,15.9,21.69,West,270,0.7,0.7,25,0.00,,,0.01,WUHU216HW,2013-03-14 23:00:00,
2013-03-14 17:05:00,50.8,15.9,21.69,NNE,23,1.1,1.1,25,0.00,,,0.01,WUHU216HW,2013-03-14 23:05:00,
2013-03-14 17:10:00,50.8,15.9,21.69,NNE,23,1.1,1.1,25,0.00,,,0.01,WUHU216HW,2013-03-14 23:10:00,
2013-03-14 17:30:00,50.9,17.8,21.68,East,90,1.1,1.1,27,0.00,,,0.01,WUHU216HW,2013-03-14 23:30:00,
2013-03-14 17:35:00,50.9,17.8,21.68,East,90,0.9,1.1,27,0.00,,,0.01,WUHU216HW,2013-03-14 23:35:00,
2013-03-14 17:40:00,50.9,17.8,21.68,East,90,0.9,1.1,27,0.00,,,0.01,WUHU216HW,2013-03-14 23:40:00,
2013-03-14 18:00:00,48.6,15.0,21.69,West,270,4.0,4.0,26,0.00,,,0.01,WUHU216HW,2013-03-15 00:00:00,
2013-03-14 18:05:00,48.6,15.8,21.69,WNW,293,2.5,4.0,27,0.00,,,0.01,WUHU216HW,2013-03-15 00:05:00,
2013-03-14 18:10:00,48.6,15.8,21.69,WNW,293,2.5,2.5,27,0.00,,,0.01,WUHU216HW,2013-03-15 00:10:00,
2013-03-14 18:30:00,47.9,17.1,21.69,West,270,0.4,0.4,29,0.00,,,0.01,WUHU216HW,2013-03-15 00:30:00,
2013-03-14 18:35:00,47.9,17.1,21.69,WNW,293,0.4,0.4,29,0.00,,,0.01,WUHU216HW,2013-03-15 00:35:00,
2013-03-14 18:40:00,47.9,17.1,21.69,WNW,293,0.4,0.4,29,0.00,,,0.01,WUHU216HW,2013-03-15 00:40:00,
2013-03-14 19:00:00,46.6,17.6,21.69,WNW,293,0.2,0.2,31,0.00,,,0.01,WUHU216HW,2013-03-15 01:00:00,
2013-03-14 19:05:00,46.6,17.6,21.69,NNW,338,0.2,0.2,31,0.00,,,0.01,WUHU216HW,2013-03-15 01:05:00,
2013-03-14 19:10:00,46.6,17.6,21.69,NNW,338,0.2,0.2,31,0.00,,,0.01,WUHU216HW,2013-03-15 01:10:00,
2013-03-14 19:30:00,45.5,17.9,21.69,NE,45,1.1,1.1,33,0.00,,,0.01,WUHU216HW,2013-03-15 01:30:00,
2013-03-14 19:35:00,45.5,17.9,21.69,NE,45,1.1,1.1,33,0.00,,,0.01,WUHU216HW,2013-03-15 01:35:00,
2013-03-14 20:00:00,44.5,17.7,21.69,West,270,2.0,2.0,34,0.00,,,0.01,WUHU216HW,2013-03-15 02:00:00,
2013-03-14 20:05:00,44.5,17.7,21.69,West,270,2.0,2.0,34,0.00,,,0.01,WUHU216HW,2013-03-15 02:05:00,
2013-03-14 20:10:00,44.5,17.7,21.69,West,270,2.0,2.0,34,0.00,,,0.01,WUHU216HW,2013-03-15 02:10:00,
2013-03-14 20:30:00,43.9,17.8,21.69,West,270,0.4,0.4,35,0.00,,,0.01,WUHU216HW,2013-03-15 02:30:00,
2013-03-14 20:35:00,43.7,17.6,21.69,East,90,0.7,0.7,35,0.00,,,0.01,WUHU216HW,2013-03-15 02:35:00,
2013-03-14 20:40:00,43.7,17.6,21.69,East,90,0.7,0.7,35,0.00,,,0.01,WUHU216HW,2013-03-15 02:40:00,
2013-03-14 21:00:00,43.4,17.3,21.69,ENE,68,2.0,2.0,35,0.00,,,0.01,WUHU216HW,2013-03-15 03:00:00,
2013-03-14 21:05:00,43.4,17.3,21.68,ENE,68,1.8,2.0,35,0.00,,,0.01,WUHU216HW,2013-03-15 03:05:00,
2013-03-14 21:10:00,43.4,17.3,21.68,ENE,68,1.8,2.0,35,0.00,,,0.01,WUHU216HW,2013-03-15 03:10:00,
2013-03-14 21:30:00,42.7,18.0,21.69,WNW,293,4.5,4.5,37,0.00,,,0.01,WUHU216HW,2013-03-15 03:30:00,
2013-03-14 21:35:00,42.7,18.0,21.69,West,270,4.5,4.5,37,0.00,,,0.01,WUHU216HW,2013-03-15 03:35:00,
2013-03-14 21:40:00,42.7,18.0,21.69,West,270,4.5,4.5,37,0.00,,,0.01,WUHU216HW,2013-03-15 03:40:00,
2013-03-14 22:00:00,39.4,18.1,21.69,West,270,4.7,4.7,42,0.00,,,0.01,WUHU216HW,2013-03-15 04:00:00,
2013-03-14 22:05:00,39.2,17.5,21.69,West,270,4.7,4.7,41,0.00,,,0.01,WUHU216HW,2013-03-15 04:05:00,
2013-03-14 22:30:00,38.0,17.4,21.69,WNW,293,6.3,6.3,43,0.00,,,0.01,WUHU216HW,2013-03-15 04:30:00,
2013-03-14 22:35:00,38.0,17.9,21.69,WSW,248,3.6,6.3,44,0.00,,,0.01,WUHU216HW,2013-03-15 04:35:00,
2013-03-14 22:40:00,38.0,17.9,21.69,WSW,248,3.6,3.6,44,0.00,,,0.01,WUHU216HW,2013-03-15 04:40:00,
2013-03-14 23:00:00,38.0,17.9,21.69,WNW,293,6.5,6.5,44,0.00,,,0.01,WUHU216HW,2013-03-15 05:00:00,
2013-03-14 23:05:00,38.0,17.9,21.69,WNW,293,2.5,6.5,44,0.00,,,0.01,WUHU216HW,2013-03-15 05:05:00,
2013-03-14 23:10:00,38.0,17.9,21.69,WNW,293,2.5,2.5,44,0.00,,,0.01,WUHU216HW,2013-03-15 05:10:00,
2013-03-14 23:30:00,37.3,17.2,21.69,West,270,2.2,2.2,44,0.00,,,0.01,WUHU216HW,2013-03-15 05:30:00,
2013-03-14 23:35:00,37.3,17.2,21.69,West,270,2.5,2.5,44,0.00,,,0.01,WUHU216HW,2013-03-15 05:35:00,
2013-03-14 23:40:00,37.3,17.2,21.69,West,270,2.5,2.5,44,0.00,,,0.01,WUHU216HW,2013-03-15 05:40:00,